Time;durP1;ratioP1;P1;durP2;ratioP2;P2;SDS_P1;SDS_P2;PMS_P1;PMS_P2;Temp;Humidity;BMP_temperature;BMP_pressure;BME280_temperature;BME280_humidity;BME280_pressure;Samples;Min_cycle;Max_cycle;Signal;HPM_P1;HPM_P2
2022/12/29 00:01:01;;;;;;;6.45;2.92;;;9.90;99.90;;;;;;5052772;28;20212;-64
2022/12/29 00:03:29;;;;;;;2.90;2.70;;;9.90;99.90;;;;;;5051948;28;20205;-64
2022/12/29 00:05:57;;;;;;;3.83;2.63;;;9.90;99.90;;;;;;5052097;28;20205;-64
2022/12/29 00:08:43;;;;;;;2.50;2.30;;;10.00;99.90;;;;;;5053139;28;20208;-64
2022/12/29 00:11:16;;;;;;;4.30;2.40;;;10.00;99.90;;;;;;5052514;28;20204;-64
2022/12/29 00:16:31;;;;;;;2.90;2.42;;;10.10;99.90;;;;;;5052190;28;20208;-64
2022/12/29 00:18:59;;;;;;;3.85;2.85;;;10.20;99.90;;;;;;5052948;28;20200;-64
2022/12/29 00:35:32;;;;;;;2.75;2.10;;;10.40;99.90;;;;;;5065359;28;20188;-65
2022/12/29 00:46:24;;;;;;;7.25;2.25;;;10.70;99.90;;;;;;5053718;28;20704;-64
2022/12/29 00:51:37;;;;;;;2.83;2.03;;;11.10;99.90;;;;;;5072712;28;20188;-64
2022/12/29 00:54:05;;;;;;;2.38;1.90;;;11.40;99.90;;;;;;5073628;28;20256;-64
2022/12/29 00:56:33;;;;;;;2.47;2.10;;;11.50;99.90;;;;;;5074070;28;20250;-64
2022/12/29 00:59:03;;;;;;;2.25;1.88;;;11.50;99.90;;;;;;5073883;28;20231;-64
2022/12/29 01:01:31;;;;;;;3.15;1.50;;;11.50;99.90;;;;;;5070899;28;20214;-64
2022/12/29 01:04:00;;;;;;;2.03;1.73;;;11.60;99.90;;;;;;5074107;28;20211;-64
2022/12/29 01:06:28;;;;;;;6.63;1.65;;;11.70;99.90;;;;;;5075957;28;20310;-64
2022/12/29 01:11:38;;;;;;;3.53;2.10;;;11.90;99.90;;;;;;5074651;28;20208;-64
2022/12/29 01:14:09;;;;;;;2.55;1.70;;;11.90;99.90;;;;;;5073979;28;20609;-64
2022/12/29 01:16:38;;;;;;;1.92;1.70;;;11.90;99.90;;;;;;5074700;28;20223;-64
2022/12/29 01:19:06;;;;;;;6.88;2.00;;;11.90;99.90;;;;;;5075619;28;20645;-64
2022/12/29 01:21:35;;;;;;;1.70;1.60;;;11.90;99.90;;;;;;5075672;28;20625;-65
2022/12/29 01:24:03;;;;;;;1.73;1.63;;;11.90;99.90;;;;;;5075880;28;20284;-65
2022/12/29 01:26:31;;;;;;;2.03;1.45;;;11.90;99.90;;;;;;5075792;28;20204;-65
2022/12/29 01:28:59;;;;;;;2.97;1.80;;;11.80;99.90;;;;;;5074809;28;20261;-64
2022/12/29 01:31:28;;;;;;;6.10;2.72;;;11.80;99.90;;;;;;5074757;28;20698;-65
2022/12/29 01:33:56;;;;;;;1.60;1.50;;;11.70;99.90;;;;;;5074718;28;20218;-65
2022/12/29 01:36:25;;;;;;;5.10;2.00;;;11.80;99.90;;;;;;5078251;28;20223;-65
2022/12/29 01:38:53;;;;;;;3.25;2.25;;;11.70;99.90;;;;;;5074940;28;20196;-65
2022/12/29 01:41:22;;;;;;;2.15;1.52;;;11.70;99.90;;;;;;5068602;28;20201;-65
2022/12/29 01:43:52;;;;;;;2.10;1.67;;;11.80;99.90;;;;;;5067606;28;20204;-65
2022/12/29 01:46:27;;;;;;;1.80;1.30;;;11.70;99.90;;;;;;5074288;28;20555;-65
2022/12/29 01:49:03;;;;;;;1.67;1.58;;;11.60;99.90;;;;;;5078302;28;20207;-65
2022/12/29 01:51:36;;;;;;;1.88;1.50;;;11.60;99.90;;;;;;5075038;28;20202;-65
2022/12/29 01:54:09;;;;;;;2.33;1.70;;;11.60;99.90;;;;;;5057580;28;20200;-64
2022/12/29 01:56:37;;;;;;;1.70;1.60;;;11.50;99.90;;;;;;5069092;28;20209;-64
2022/12/29 01:59:09;;;;;;;3.97;1.98;;;11.60;99.90;;;;;;5071345;28;20232;-64
2022/12/29 02:01:37;;;;;;;5.75;1.50;;;11.60;99.90;;;;;;5071426;28;20189;-65
2022/12/29 02:04:07;;;;;;;1.85;1.75;;;11.60;99.90;;;;;;5055960;28;20204;-65
2022/12/29 02:06:41;;;;;;;2.10;2.00;;;11.60;99.90;;;;;;5076096;28;20196;-64
2022/12/29 02:09:09;;;;;;;3.95;1.83;;;11.60;99.90;;;;;;5075987;28;20207;-64
2022/12/29 02:11:38;;;;;;;1.67;1.58;;;11.60;99.90;;;;;;5072790;28;20272;-64
2022/12/29 02:14:10;;;;;;;4.30;1.65;;;11.60;99.90;;;;;;5071534;28;20205;-64
2022/12/29 02:16:55;;;;;;;1.77;1.20;;;11.70;99.90;;;;;;5068671;28;20261;-64
2022/12/29 02:20:03;;;;;;;1.52;1.27;;;11.70;99.90;;;;;;5073281;28;20199;-65
2022/12/29 02:22:35;;;;;;;1.95;1.60;;;11.80;99.90;;;;;;4991922;28;20231;-65
2022/12/29 02:25:46;;;;;;;2.97;1.30;;;11.70;99.90;;;;;;5056335;28;20558;-65
2022/12/29 02:28:56;;;;;;;3.65;1.55;;;11.70;99.90;;;;;;5055073;28;20533;-65
2022/12/29 02:31:32;;;;;;;5.28;2.00;;;11.70;99.90;;;;;;4978600;28;20202;-65
2022/12/29 02:34:11;;;;;;;2.85;2.08;;;11.50;99.90;;;;;;5013351;28;20190;-64
2022/12/29 02:36:45;;;;;;;2.03;1.60;;;11.40;99.90;;;;;;5041029;28;20210;-65
2022/12/29 02:39:19;;;;;;;4.70;1.65;;;11.30;99.90;;;;;;5058964;28;20199;-65
2022/12/29 02:41:57;;;;;;;2.63;1.75;;;11.20;99.90;;;;;;5076621;28;20188;-65
2022/12/29 02:44:32;;;;;;;1.67;1.58;;;11.20;99.90;;;;;;5075651;28;20191;-65
2022/12/29 02:47:10;;;;;;;3.75;1.75;;;11.10;99.90;;;;;;5075229;28;20186;-65
2022/12/29 02:49:46;;;;;;;1.77;1.30;;;11.10;99.90;;;;;;5074743;28;20625;-65
2022/12/29 02:52:18;;;;;;;1.92;1.42;;;11.10;99.90;;;;;;5076113;28;20198;-65
2022/12/29 02:54:49;;;;;;;1.45;1.35;;;11.10;99.90;;;;;;5075888;28;20703;-65
2022/12/29 02:57:30;;;;;;;3.75;1.60;;;11.20;99.90;;;;;;5075842;28;20211;-65
2022/12/29 03:00:02;;;;;;;1.98;1.52;;;11.20;99.90;;;;;;5075612;28;20651;-65
2022/12/29 03:02:49;;;;;;;1.50;1.30;;;11.10;99.90;;;;;;5062197;28;20227;-65
2022/12/29 03:05:34;;;;;;;4.32;2.15;;;11.10;99.90;;;;;;5055960;28;20627;-65
2022/12/29 03:08:07;;;;;;;1.73;1.38;;;11.10;99.90;;;;;;5058543;28;20211;-65
2022/12/29 03:10:45;;;;;;;1.10;1.10;;;11.10;99.90;;;;;;5077638;28;20277;-65
2022/12/29 03:16:19;;;;;;;2.97;1.90;;;11.10;99.90;;;;;;5055541;28;20189;-65
2022/12/29 03:18:59;;;;;;;1.48;1.30;;;11.10;99.90;;;;;;5055207;28;20211;-65
2022/12/29 03:24:25;;;;;;;1.35;1.25;;;11.10;99.90;;;;;;5053892;28;20215;-65
2022/12/29 03:26:56;;;;;;;1.35;1.25;;;11.20;99.90;;;;;;5066726;28;20192;-65
2022/12/29 03:29:24;;;;;;;1.38;1.27;;;11.20;99.90;;;;;;5068802;28;20200;-65
2022/12/29 03:31:54;;;;;;;7.40;1.98;;;11.20;99.90;;;;;;5070117;28;20198;-65
2022/12/29 03:34:25;;;;;;;2.55;1.42;;;11.20;99.90;;;;;;5055184;28;20197;-65
2022/12/29 03:37:01;;;;;;;3.47;1.40;;;11.20;99.90;;;;;;5067276;28;20196;-65
2022/12/29 03:39:29;;;;;;;1.60;1.35;;;11.10;99.90;;;;;;5055334;28;20203;-65
2022/12/29 03:42:02;;;;;;;1.73;1.38;;;11.10;99.90;;;;;;5056695;28;20209;-65
2022/12/29 03:44:34;;;;;;;2.85;1.50;;;11.10;99.90;;;;;;5073731;28;20196;-65
2022/12/29 03:47:03;;;;;;;1.67;1.35;;;11.10;99.90;;;;;;5072384;28;20187;-65
2022/12/29 03:49:32;;;;;;;1.10;1.10;;;11.10;99.90;;;;;;5073892;28;20210;-65
2022/12/29 03:52:00;;;;;;;1.95;1.70;;;11.00;99.90;;;;;;5071037;28;20606;-65
2022/12/29 03:54:29;;;;;;;1.15;1.00;;;11.00;99.90;;;;;;5067577;28;20204;-65
2022/12/29 03:56:57;;;;;;;1.50;1.40;;;10.90;99.90;;;;;;5054479;28;20723;-65
2022/12/29 03:59:37;;;;;;;1.30;1.20;;;10.90;99.90;;;;;;5054039;28;20656;-65
2022/12/29 04:02:05;;;;;;;1.20;1.20;;;10.80;99.90;;;;;;5056743;28;20693;-65
2022/12/29 04:04:37;;;;;;;2.03;1.60;;;10.80;99.90;;;;;;5073170;28;20204;-65
2022/12/29 04:07:05;;;;;;;2.13;1.33;;;10.90;99.90;;;;;;5074251;28;20200;-65
2022/12/29 04:09:33;;;;;;;1.55;1.45;;;10.90;99.90;;;;;;5069294;28;20208;-66
2022/12/29 04:12:01;;;;;;;1.35;1.15;;;10.80;99.90;;;;;;5067510;28;20253;-65
2022/12/29 04:14:29;;;;;;;1.48;1.38;;;10.80;99.90;;;;;;5072511;28;20576;-65
2022/12/29 04:16:58;;;;;;;2.25;1.60;;;10.80;99.90;;;;;;5067899;28;20568;-64
2022/12/29 04:19:26;;;;;;;1.35;1.10;;;10.80;99.90;;;;;;5052310;28;20631;-65
2022/12/29 04:21:55;;;;;;;1.35;1.20;;;10.80;99.90;;;;;;5068200;28;20677;-66
2022/12/29 04:24:23;;;;;;;1.30;1.17;;;10.80;99.90;;;;;;5073603;28;20609;-65
2022/12/29 04:26:51;;;;;;;1.33;1.20;;;10.80;99.90;;;;;;5071687;28;20665;-65
2022/12/29 04:29:48;;;;;;;1.67;1.58;;;10.80;99.90;;;;;;5071645;28;20204;-65
2022/12/29 04:32:34;;;;;;;1.67;1.10;;;10.80;99.90;;;;;;5071561;28;20222;-65
2022/12/29 04:35:02;;;;;;;2.60;1.30;;;10.80;99.90;;;;;;5060222;28;20196;-65
2022/12/29 04:37:32;;;;;;;5.30;1.20;;;10.90;99.90;;;;;;5072519;28;20199;-65
2022/12/29 04:40:00;;;;;;;4.25;1.02;;;10.90;99.90;;;;;;5063209;28;20220;-65
2022/12/29 04:42:28;;;;;;;1.00;1.00;;;10.90;99.90;;;;;;5052219;28;20261;-64
2022/12/29 04:44:56;;;;;;;2.90;1.20;;;10.90;99.90;;;;;;5053231;28;20209;-65
2022/12/29 04:47:38;;;;;;;1.60;1.50;;;10.90;99.90;;;;;;5051128;28;20203;-64
2022/12/29 04:50:24;;;;;;;5.28;1.40;;;10.90;99.90;;;;;;5053494;28;20229;-64
2022/12/29 04:52:58;;;;;;;3.50;1.55;;;10.90;99.90;;;;;;5053187;28;20189;-65
2022/12/29 04:55:26;;;;;;;1.33;1.10;;;10.80;99.90;;;;;;5054706;28;20215;-65
2022/12/29 04:57:54;;;;;;;1.30;1.13;;;10.80;99.90;;;;;;5053486;28;20220;-64
2022/12/29 05:00:22;;;;;;;1.88;1.55;;;10.90;99.90;;;;;;5052822;28;20215;-64
2022/12/29 05:02:50;;;;;;;1.20;1.20;;;10.90;99.90;;;;;;5060927;28;20204;-64
2022/12/29 05:05:18;;;;;;;3.03;1.60;;;11.00;99.90;;;;;;5071484;28;20199;-64
2022/12/29 05:07:50;;;;;;;3.15;1.30;;;11.10;99.90;;;;;;5072173;28;20188;-64
2022/12/29 05:10:19;;;;;;;1.65;1.30;;;11.30;99.90;;;;;;5076114;28;20627;-64
2022/12/29 05:12:49;;;;;;;2.55;1.40;;;11.30;99.90;;;;;;5076287;28;20547;-64
2022/12/29 05:15:17;;;;;;;2.70;1.70;;;11.30;99.90;;;;;;5075828;28;20200;-64
2022/12/29 05:17:45;;;;;;;2.20;1.48;;;11.30;99.90;;;;;;5074985;28;20563;-65
2022/12/29 05:20:13;;;;;;;2.80;1.45;;;11.40;99.90;;;;;;5075750;28;20210;-65
2022/12/29 05:22:41;;;;;;;7.97;1.85;;;11.40;99.90;;;;;;5075699;28;20220;-65
2022/12/29 05:25:10;;;;;;;1.50;1.40;;;11.30;99.90;;;;;;5075930;28;20203;-65
2022/12/29 05:27:52;;;;;;;1.27;1.17;;;11.30;99.90;;;;;;5075339;28;20204;-64
2022/12/29 05:30:31;;;;;;;1.50;1.40;;;11.30;99.90;;;;;;5075258;28;20188;-65
2022/12/29 05:32:59;;;;;;;1.88;1.70;;;11.30;99.90;;;;;;5075249;28;20207;-65
2022/12/29 05:35:27;;;;;;;8.70;1.80;;;11.20;99.90;;;;;;5075180;28;20545;-65
2022/12/29 05:37:55;;;;;;;1.50;1.40;;;11.20;99.90;;;;;;5075295;28;20202;-65
2022/12/29 05:40:23;;;;;;;4.60;1.33;;;11.10;99.90;;;;;;5063782;28;20715;-65
2022/12/29 05:42:55;;;;;;;1.65;1.25;;;11.20;99.90;;;;;;5069963;28;20203;-65
2022/12/29 05:45:58;;;;;;;3.20;1.38;;;11.20;99.90;;;;;;5065490;28;20590;-65
2022/12/29 05:48:34;;;;;;;4.93;1.45;;;11.20;99.90;;;;;;5055457;28;20197;-65
2022/12/29 05:51:25;;;;;;;1.60;1.50;;;11.20;99.90;;;;;;5066609;28;20205;-65
2022/12/29 05:53:55;;;;;;;2.72;1.80;;;11.30;99.90;;;;;;5054649;28;20208;-65
2022/12/29 05:56:24;;;;;;;1.95;1.20;;;11.30;99.90;;;;;;5066482;28;20208;-65
2022/12/29 05:58:59;;;;;;;1.88;1.52;;;11.30;99.90;;;;;;5054505;28;20229;-65
2022/12/29 06:01:27;;;;;;;5.07;1.97;;;11.40;99.90;;;;;;5054501;28;20204;-65
2022/12/29 06:03:55;;;;;;;2.28;1.60;;;11.40;99.90;;;;;;5053703;28;20600;-65
2022/12/29 06:06:23;;;;;;;1.10;1.00;;;11.50;99.90;;;;;;5057430;28;20283;-65
2022/12/29 06:08:51;;;;;;;2.42;2.22;;;11.60;99.90;;;;;;5073974;28;20584;-65
2022/12/29 06:11:20;;;;;;;1.50;1.40;;;11.70;99.90;;;;;;5074867;28;20204;-65
2022/12/29 06:13:55;;;;;;;4.63;4.27;;;11.70;99.90;;;;;;5074357;28;20194;-65
2022/12/29 06:16:26;;;;;;;1.70;1.60;;;11.70;99.90;;;;;;5071262;28;21225;-65
2022/12/29 06:18:58;;;;;;;4.37;4.00;;;11.80;99.90;;;;;;5073484;28;20630;-65
2022/12/29 06:21:26;;;;;;;5.07;1.92;;;11.70;99.90;;;;;;5074254;28;20596;-65
2022/12/29 06:23:54;;;;;;;1.50;1.40;;;11.70;99.90;;;;;;5070269;28;20260;-64
2022/12/29 06:26:22;;;;;;;4.50;1.97;;;11.80;99.90;;;;;;5064120;28;20649;-64
2022/12/29 06:28:50;;;;;;;2.10;2.00;;;11.80;99.90;;;;;;5054150;28;20599;-65
2022/12/29 06:31:18;;;;;;;2.53;1.50;;;11.80;99.90;;;;;;5055479;28;20629;-65
2022/12/29 06:33:48;;;;;;;1.65;1.55;;;11.70;99.90;;;;;;5054821;28;20600;-65
2022/12/29 06:36:16;;;;;;;1.98;1.88;;;11.70;99.90;;;;;;5053670;28;20602;-65
2022/12/29 06:38:44;;;;;;;4.35;2.78;;;11.70;99.90;;;;;;5054829;28;20679;-65
2022/12/29 06:41:12;;;;;;;5.63;4.70;;;11.70;99.90;;;;;;5054301;28;20209;-64
2022/12/29 06:44:18;;;;;;;3.42;2.05;;;11.70;99.90;;;;;;5062684;28;20252;-65
2022/12/29 06:46:51;;;;;;;2.08;1.95;;;11.70;99.90;;;;;;5072291;28;20184;-65
2022/12/29 06:49:21;;;;;;;2.60;2.10;;;11.60;99.90;;;;;;5062986;28;20201;-65
2022/12/29 06:51:49;;;;;;;3.40;2.03;;;11.70;99.90;;;;;;5053691;28;20234;-66
2022/12/29 06:54:17;;;;;;;2.50;2.28;;;11.70;99.90;;;;;;5054304;28;20215;-66
2022/12/29 06:56:44;;;;;;;4.70;2.10;;;11.60;99.90;;;;;;5053954;28;20567;-66
2022/12/29 06:59:12;;;;;;;1.80;1.70;;;11.50;99.90;;;;;;5054464;28;20992;-66
2022/12/29 07:01:41;;;;;;;1.95;1.85;;;11.60;99.90;;;;;;5054507;28;20219;-65
2022/12/29 07:04:08;;;;;;;3.67;1.75;;;11.50;99.90;;;;;;5065902;28;20545;-66
2022/12/29 07:06:38;;;;;;;6.07;2.22;;;11.50;99.90;;;;;;5075036;28;20567;-65
2022/12/29 07:09:06;;;;;;;2.40;2.20;;;11.50;99.90;;;;;;5073457;28;20225;-65
2022/12/29 07:11:34;;;;;;;3.03;2.83;;;11.50;99.90;;;;;;5073772;28;20214;-65
2022/12/29 07:14:03;;;;;;;2.67;2.47;;;11.70;99.90;;;;;;5074497;28;20243;-65
2022/12/29 07:16:31;;;;;;;2.80;2.65;;;11.60;99.90;;;;;;5074303;28;20200;-65
2022/12/29 07:18:59;;;;;;;3.47;2.35;;;11.60;99.90;;;;;;5073922;28;20218;-65
2022/12/29 07:21:27;;;;;;;6.18;4.32;;;11.60;99.90;;;;;;5073801;28;20203;-65
2022/12/29 07:23:56;;;;;;;3.05;2.17;;;11.60;99.90;;;;;;5073139;28;20728;-65
2022/12/29 07:26:24;;;;;;;3.90;2.00;;;11.50;99.90;;;;;;5074302;28;20208;-65
2022/12/29 07:28:52;;;;;;;3.97;2.30;;;11.50;99.90;;;;;;5073896;28;20589;-65
2022/12/29 07:31:22;;;;;;;3.17;2.97;;;11.50;99.90;;;;;;5073589;28;20655;-65
2022/12/29 07:33:50;;;;;;;2.38;2.10;;;11.50;99.90;;;;;;5072358;28;20245;-65
2022/12/29 07:36:18;;;;;;;2.00;1.90;;;11.40;99.90;;;;;;5062636;28;20257;-65
2022/12/29 07:38:46;;;;;;;4.23;2.20;;;11.50;99.90;;;;;;5064566;28;20630;-65
2022/12/29 07:41:16;;;;;;;2.97;2.67;;;11.50;99.90;;;;;;5064163;28;20639;-65
2022/12/29 07:43:47;;;;;;;3.63;2.20;;;11.50;99.90;;;;;;5062893;28;20654;-65
2022/12/29 07:46:36;;;;;;;2.13;1.90;;;11.50;99.90;;;;;;5059533;28;20213;-65
2022/12/29 07:49:04;;;;;;;3.77;2.90;;;11.50;99.90;;;;;;5062297;28;20721;-65
2022/12/29 07:51:32;;;;;;;7.03;2.90;;;11.40;99.90;;;;;;5063339;28;20619;-65
2022/12/29 07:54:00;;;;;;;5.20;2.80;;;11.50;99.90;;;;;;5059506;28;20581;-65
2022/12/29 07:56:30;;;;;;;1.80;1.70;;;11.50;99.90;;;;;;5064008;28;20203;-64
2022/12/29 07:58:58;;;;;;;4.72;1.95;;;11.50;99.90;;;;;;5062420;28;20238;-64
2022/12/29 08:01:26;;;;;;;4.60;3.33;;;11.50;99.90;;;;;;5058918;28;20225;-64
2022/12/29 08:03:54;;;;;;;2.97;1.92;;;11.50;99.90;;;;;;5056837;28;20215;-64
2022/12/29 08:06:22;;;;;;;3.23;2.70;;;11.60;99.90;;;;;;5060787;28;20209;-64
2022/12/29 08:08:50;;;;;;;2.90;2.43;;;11.60;99.90;;;;;;5062365;28;20986;-65
2022/12/29 08:11:18;;;;;;;2.05;1.95;;;11.70;99.90;;;;;;5060859;28;20630;-65
2022/12/29 08:13:47;;;;;;;4.22;2.67;;;11.80;99.90;;;;;;5062149;28;20552;-65
2022/12/29 08:16:15;;;;;;;2.13;2.00;;;11.90;99.90;;;;;;5060787;28;20261;-65
2022/12/29 08:18:43;;;;;;;2.90;2.70;;;12.10;99.90;;;;;;5062810;28;20623;-65
2022/12/29 08:21:11;;;;;;;3.37;3.07;;;12.20;99.90;;;;;;5063277;28;20621;-65
2022/12/29 08:23:39;;;;;;;3.43;2.33;;;12.30;99.90;;;;;;5059613;28;20667;-65
2022/12/29 08:26:07;;;;;;;1.93;1.83;;;12.40;99.90;;;;;;5060534;28;20600;-65
2022/12/29 08:28:35;;;;;;;2.20;2.10;;;12.50;99.90;;;;;;5060445;28;20589;-65
2022/12/29 08:31:04;;;;;;;2.90;2.13;;;12.70;99.90;;;;;;5062814;28;20701;-65
2022/12/29 08:33:32;;;;;;;3.23;2.00;;;12.80;99.90;;;;;;5061524;28;20595;-65
2022/12/29 08:36:02;;;;;;;6.17;1.50;;;12.80;99.90;;;;;;5062268;28;20694;-65
2022/12/29 08:38:30;;;;;;;3.63;2.20;;;12.80;99.90;;;;;;5062519;28;20606;-65
2022/12/29 08:41:00;;;;;;;2.50;1.83;;;13.00;99.90;;;;;;5059469;28;20634;-65
2022/12/29 08:43:29;;;;;;;1.90;1.70;;;12.90;99.90;;;;;;5060412;28;20585;-65
2022/12/29 08:45:58;;;;;;;2.13;1.77;;;12.90;99.90;;;;;;5059398;28;20622;-65
2022/12/29 08:48:28;;;;;;;2.47;1.93;;;12.90;99.90;;;;;;5062906;28;20621;-66
2022/12/29 08:50:56;;;;;;;2.10;1.93;;;13.00;99.90;;;;;;5062275;28;20619;-66
2022/12/29 08:53:24;;;;;;;3.23;1.80;;;13.00;99.90;;;;;;5056074;28;20653;-65
2022/12/29 08:55:57;;;;;;;7.30;2.67;;;13.00;99.90;;;;;;5058705;28;21003;-65
2022/12/29 08:58:26;;;;;;;4.93;2.37;;;13.10;99.90;;;;;;5066068;28;20681;-64
2022/12/29 09:00:55;;;;;;;4.10;2.10;;;13.10;99.90;;;;;;5070689;28;21299;-65
2022/12/29 09:03:24;;;;;;;2.43;2.23;;;13.10;99.90;;;;;;5058543;28;21000;-65
2022/12/29 09:05:55;;;;;;;2.23;1.90;;;13.10;99.90;;;;;;5052704;28;20608;-64
2022/12/29 09:08:23;;;;;;;2.23;2.07;;;13.10;99.90;;;;;;5052380;28;20619;-65
2022/12/29 09:10:51;;;;;;;2.50;1.90;;;13.10;99.90;;;;;;5051218;28;20622;-65
2022/12/29 09:13:19;;;;;;;5.27;1.93;;;13.00;99.90;;;;;;5051310;28;20642;-64
2022/12/29 09:15:47;;;;;;;2.13;1.40;;;12.90;99.90;;;;;;5052470;28;20668;-64
2022/12/29 09:18:15;;;;;;;1.90;1.70;;;12.90;99.90;;;;;;5070845;28;20626;-64
2022/12/29 09:20:43;;;;;;;2.47;2.27;;;12.80;99.90;;;;;;5064062;28;20907;-65
2022/12/29 09:23:12;;;;;;;5.13;1.97;;;12.70;99.90;;;;;;5056409;28;20666;-65
2022/12/29 09:25:42;;;;;;;3.07;2.77;;;12.60;99.90;;;;;;5072057;28;20650;-65
2022/12/29 09:28:10;;;;;;;4.93;2.50;;;12.60;99.90;;;;;;5070262;28;20596;-64
2022/12/29 09:30:39;;;;;;;2.55;2.00;;;12.60;99.90;;;;;;5070911;28;20603;-64
2022/12/29 09:33:07;;;;;;;4.37;2.10;;;12.60;99.90;;;;;;5053531;28;20203;-63
2022/12/29 09:35:35;;;;;;;3.97;2.77;;;;;;;;;;5067799;28;20604;-63
2022/12/29 09:38:03;;;;;;;4.40;2.37;;;12.50;99.90;;;;;;5063694;28;20619;-64
2022/12/29 09:40:34;;;;;;;8.43;2.13;;;12.50;99.90;;;;;;5052461;28;20617;-64
2022/12/29 09:43:17;;;;;;;4.63;2.23;;;12.60;99.90;;;;;;5066412;28;20598;-64
2022/12/29 09:45:47;;;;;;;12.80;2.10;;;;;;;;;;5060020;28;20606;-64
2022/12/29 09:48:17;;;;;;;2.43;2.23;;;;;;;;;;5053818;28;20623;-65
2022/12/29 09:50:48;;;;;;;2.13;1.93;;;;;;;;;;5054118;28;20562;-64
2022/12/29 09:53:22;;;;;;;2.13;2.03;;;12.80;99.90;;;;;;5052532;28;20587;-63
2022/12/29 09:55:54;;;;;;;2.90;2.30;;;;;;;;;;5073616;28;20624;-64
2022/12/29 09:58:26;;;;;;;5.10;2.43;;;12.80;99.90;;;;;;5075504;28;20628;-63
2022/12/29 10:01:01;;;;;;;3.50;3.20;;;12.70;99.90;;;;;;5074325;28;20664;-63
2022/12/29 10:03:41;;;;;;;3.40;2.93;;;12.60;99.90;;;;;;5074583;28;20570;-64
2022/12/29 10:06:12;;;;;;;2.90;2.30;;;;;;;;;;5074373;28;20585;-64
2022/12/29 10:08:43;;;;;;;3.07;2.87;;;;;;;;;;5074313;28;20613;-64
2022/12/29 10:11:18;;;;;;;2.50;2.40;;;;;;;;;;5075112;28;20581;-64
2022/12/29 10:13:54;;;;;;;4.13;2.30;;;;;;;;;;5075212;28;20641;-64
2022/12/29 10:16:27;;;;;;;5.30;2.23;;;;;;;;;;5075061;28;20553;-64
2022/12/29 10:19:05;;;;;;;4.43;2.40;;;;;;;;;;5074606;28;20590;-63
2022/12/29 10:21:39;;;;;;;1.73;1.63;;;;;;;;;;5074632;28;21179;-62
2022/12/29 10:24:09;;;;;;;3.20;2.15;;;;;;;;;;5074311;28;20575;-64
2022/12/29 10:26:40;;;;;;;4.82;3.30;;;;;;;;;;5074672;28;20196;-63
2022/12/29 10:29:15;;;;;;;3.53;2.38;;;;;;;;;;5073824;28;20226;-63
2022/12/29 10:31:46;;;;;;;2.45;2.15;;;;;;;;;;5061045;28;20192;-63
2022/12/29 10:34:17;;;;;;;4.72;2.20;;;;;;;;;;5054593;28;20200;-64
2022/12/29 10:36:48;;;;;;;3.55;1.90;;;;;;;;;;5062968;28;20198;-64
2022/12/29 10:39:20;;;;;;;3.75;2.38;;;;;;;;;;5070844;28;20196;-63
2022/12/29 10:41:52;;;;;;;3.47;2.00;;;;;;;;;;5072226;28;20230;-65
2022/12/29 10:44:21;;;;;;;2.03;1.92;;;;;;;;;;5072913;28;20199;-63
2022/12/29 10:46:57;;;;;;;3.38;2.42;;;;;;;;;;5060702;28;20648;-63
2022/12/29 10:49:26;;;;;;;1.52;1.42;;;;;;;;;;5054947;28;20188;-63
2022/12/29 10:51:56;;;;;;;1.95;1.73;;;;;;;;;;5054498;28;20562;-63
2022/12/29 10:54:27;;;;;;;2.40;1.90;;;;;;;;;;5053822;28;20682;-63
2022/12/29 10:57:01;;;;;;;2.05;1.83;;;;;;;;;;5054298;28;20562;-63
2022/12/29 10:59:31;;;;;;;3.40;2.00;;;;;;;;;;5053424;28;20699;-64
2022/12/29 11:02:02;;;;;;;2.00;1.90;;;;;;;;;;5053227;28;20663;-64
2022/12/29 11:04:38;;;;;;;2.25;2.08;;;;;;;;;;5052730;28;20196;-64
2022/12/29 11:07:07;;;;;;;125.15;18.85;;;;;;;;;;5053013;28;20192;-63
2022/12/29 11:09:37;;;;;;;9.93;3.17;;;;;;;;;;5053798;28;20217;-63
2022/12/29 11:12:20;;;;;;;154.23;21.27;;;;;;;;;;5054216;28;20207;-63
2022/12/29 11:14:49;;;;;;;2.33;2.20;;;;;;;;;;5052186;28;20614;-64
2022/12/29 11:17:18;;;;;;;2.73;2.50;;;;;;;;;;5054205;28;20580;-64
2022/12/29 11:19:46;;;;;;;6.57;2.60;;;;;;;;;;5053189;28;20970;-64
2022/12/29 11:22:15;;;;;;;2.17;1.97;;;;;;;;;;5053941;28;21014;-63
2022/12/29 11:24:48;;;;;;;2.50;2.30;;;;;;;;;;5053012;28;20945;-64
2022/12/29 11:27:17;;;;;;;17.20;4.30;;;;;;;;;;5054067;28;20584;-64
2022/12/29 11:29:47;;;;;;;3.57;2.30;;;;;;;;;;5052781;28;20611;-64
2022/12/29 11:32:19;;;;;;;14.93;2.43;;;;;;;;;;5052756;28;20581;-64
2022/12/29 11:34:48;;;;;;;5.10;2.27;;;;;;;;;;5052975;28;20560;-64
2022/12/29 11:37:18;;;;;;;2.67;2.10;;;;;;;;;;5053719;28;20615;-64
2022/12/29 11:39:51;;;;;;;1.83;1.70;;;;;;;;;;5053148;28;20966;-64
2022/12/29 11:42:21;;;;;;;2.80;1.80;;;;;;;;;;5051691;28;20653;-64
2022/12/29 11:44:51;;;;;;;2.10;1.90;;;;;;;;;;5053194;28;20596;-64
2022/12/29 11:47:25;;;;;;;17.30;3.30;;;;;;;;;;5053038;28;21103;-64
2022/12/29 11:49:55;;;;;;;24.07;4.30;;;;;;;;;;5052435;28;20610;-64
2022/12/29 11:52:24;;;;;;;1.70;1.47;;;;;;;;;;5053098;28;20958;-63
2022/12/29 11:54:53;;;;;;;2.67;1.50;;;;;;;;;;5052129;28;20997;-63
2022/12/29 11:57:23;;;;;;;8.30;2.10;;;;;;;;;;5052683;28;21186;-63
2022/12/29 11:59:55;;;;;;;1.93;1.20;;;;;;;;;;5051825;28;20651;-64
2022/12/29 12:02:36;;;;;;;5.40;2.13;;;;;;;;;;5056929;28;21190;-64
2022/12/29 12:05:11;;;;;;;4.60;1.80;;;;;;;;;;5069497;28;20639;-64
2022/12/29 12:07:41;;;;;;;1.60;1.50;;;;;;;;;;5072946;28;20900;-64
2022/12/29 12:10:15;;;;;;;1.83;1.40;;;;;;;;;;5072583;28;20585;-63
2022/12/29 12:12:45;;;;;;;1.93;1.23;;;;;;;;;;5071096;28;20621;-63
2022/12/29 12:15:21;;;;;;;2.50;1.47;;;;;;;;;;5058267;28;20616;-63
2022/12/29 12:17:59;;;;;;;1.83;1.27;;;;;;;;;;5058395;28;20630;-63
2022/12/29 12:20:29;;;;;;;1.77;1.67;;;;;;;;;;5062700;28;20584;-63
2022/12/29 12:23:03;;;;;;;2.30;1.37;;;;;;;;;;5052121;28;20667;-63
2022/12/29 12:25:36;;;;;;;2.77;1.50;;;;;;;;;;5056865;28;20607;-63
2022/12/29 12:28:07;;;;;;;1.70;1.60;;;;;;;;;;5068577;28;20955;-63
2022/12/29 12:30:40;;;;;;;2.97;1.50;;;;;;;;;;5071523;28;20580;-64
2022/12/29 12:33:15;;;;;;;219.87;30.17;;;;;;;;;;5063141;28;20603;-63
2022/12/29 12:35:45;;;;;;;2.73;1.40;;;;;;;;;;5070789;28;20618;-63
2022/12/29 12:38:19;;;;;;;5.23;2.00;;;;;;;;;;5062855;28;20611;-63
2022/12/29 12:41:05;;;;;;;2.50;2.00;;;;;;;;;;5065773;28;20614;-64
2022/12/29 12:43:44;;;;;;;2.87;1.80;;;;;;;;;;5067119;28;20625;-63
2022/12/29 12:46:26;;;;;;;2.17;1.70;;;;;;;;;;5065402;28;20597;-63
2022/12/29 12:49:02;;;;;;;11.50;5.30;;;;;;;;;;5062853;28;20583;-63
2022/12/29 12:51:35;;;;;;;9.90;1.80;;;;;;;;;;5058561;28;20711;-64
2022/12/29 12:54:11;;;;;;;15.53;2.30;;;;;;;;;;5072165;28;21052;-64
2022/12/29 12:56:45;;;;;;;2.77;1.50;;;;;;;;;;5062326;28;20688;-64
2022/12/29 12:59:18;;;;;;;1.50;1.40;;;;;;;;;;5071804;28;20652;-64
2022/12/29 13:01:54;;;;;;;3.00;1.40;;;;;;;;;;5071127;28;20621;-64
2022/12/29 13:04:34;;;;;;;1.40;1.20;;;;;;;;;;5058595;28;21013;-63
2022/12/29 13:07:05;;;;;;;16.10;4.67;;;;;;;;;;5051761;28;20619;-64
2022/12/29 13:09:44;;;;;;;1.23;1.13;;;;;;;;;;5051097;28;20617;-63
2022/12/29 13:12:19;;;;;;;4.90;1.73;;;;;;;;;;5051535;28;20594;-63
2022/12/29 13:14:53;;;;;;;2.10;1.53;;;;;;;;;;5051170;28;20623;-63
2022/12/29 13:17:26;;;;;;;2.43;1.70;;;;;;;;;;5051625;28;20625;-64
2022/12/29 13:19:58;;;;;;;3.30;1.97;;;;;;;;;;5052015;28;20977;-63
2022/12/29 13:22:30;;;;;;;7.30;1.93;;;;;;;;;;5051021;28;20681;-63
2022/12/29 13:25:06;;;;;;;2.40;1.60;;;;;;;;;;5050212;28;20989;-63
2022/12/29 13:27:36;;;;;;;11.20;2.87;;;;;;;;;;5051767;28;20943;-63
2022/12/29 13:30:06;;;;;;;4.77;1.57;;;;;;;;;;5053946;28;20627;-63
2022/12/29 13:32:42;;;;;;;5.30;1.93;;;;;;;;;;5055014;28;20619;-63
2022/12/29 13:35:16;;;;;;;3.17;2.03;;;;;;;;;;5055600;28;20602;-63
2022/12/29 13:37:48;;;;;;;4.33;1.93;;;;;;;;;;5055486;28;20601;-63
2022/12/29 13:40:18;;;;;;;3.53;1.60;;;;;;;;;;5054968;28;20600;-64
2022/12/29 13:42:48;;;;;;;5.43;2.03;;;;;;;;;;5056213;28;20666;-64
2022/12/29 13:45:18;;;;;;;3.27;1.57;;;;;;;;;;5055351;28;20593;-63
2022/12/29 13:47:50;;;;;;;1.57;1.47;;;;;;;;;;5056740;28;20590;-63
2022/12/29 13:50:20;;;;;;;1.50;1.40;;;;;;;;;;5053422;28;20828;-63
2022/12/29 13:52:52;;;;;;;2.03;1.63;;;;;;;;;;5055430;28;20604;-64
2022/12/29 13:55:27;;;;;;;4.03;1.30;;;;;;;;;;5055150;28;20591;-64
2022/12/29 13:58:00;;;;;;;1.30;1.20;;;;;;;;;;5058634;28;20624;-63
2022/12/29 14:00:30;;;;;;;1.37;1.27;;;;;;;;;;5074923;28;20564;-63
2022/12/29 14:03:12;;;;;;;5.20;1.33;;;;;;;;;;5070544;28;20621;-63
2022/12/29 14:05:41;;;;;;;1.97;0.93;;;;;;;;;;5052918;28;20579;-64
2022/12/29 14:08:15;;;;;;;1.13;1.13;;;;;;;;;;5074191;28;21194;-63
2022/12/29 14:10:48;;;;;;;2.97;1.10;;;;;;;;;;5074933;28;20574;-63
2022/12/29 14:13:17;;;;;;;1.83;1.57;;;;;;;;;;5063780;28;20605;-63
2022/12/29 14:15:47;;;;;;;1.13;1.00;;;;;;;;;;5063224;28;20589;-63
2022/12/29 14:18:18;;;;;;;0.93;0.93;;;;;;;;;;5068583;28;20634;-63
2022/12/29 14:20:53;;;;;;;9.93;0.97;;;;;;;;;;5064346;28;20928;-63